Monday, December 18, 2017, 10:27 AM CST
Back to Local

KFRI, Fort Riley, Marshall Aaf Ft Riley

Location: Fort Riley, KS, United States Lat: 39.056
Local Time: 10:27 AM CST (16:27 GMT) Lon: -96.764
Time Zone: US/Central Elev: 1062 ft

Show me the last for .
Show Decoded

2017-12-18 09:56 METAR KFRI 181556Z AUTO 25007KT 10SM CLR 03/M01 A3008 RMK AO2 SLP191 T00331007 =
2017-12-18 08:56 METAR KFRI 181456Z AUTO 25007KT 10SM CLR 00/M02 A3007 RMK AO2 SLP189 T00001025
                 52008 =
2017-12-18 07:56 METAR KFRI 181356Z AUTO 23003KT 10SM CLR M02/M04 A3006 RMK AO2 SLP185 T10241044
                 =
2017-12-18 06:56 METAR KFRI 181256Z AUTO 20004KT 10SM CLR M01/M04 A3005 RMK AO2 SLP181 T10141036
                 =
2017-12-18 05:56 METAR KFRI 181156Z AUTO 21005KT 10SM CLR M03/M05 A3005 RMK AO2 SLP182 T10271046
                 10054 21033 50003 =
2017-12-18 04:56 METAR KFRI 181056Z AUTO 22006KT 10SM CLR M03/M05 A3004 RMK AO2 SLP179 T10271046
                 =
2017-12-18 03:56 METAR KFRI 180956Z AUTO 22005KT 8SM CLR M02/M03 A3004 RMK AO2 SLP177 T10201034 =
2017-12-18 02:56 METAR KFRI 180856Z AUTO 23003KT 9SM CLR M01/M02 A3004 RMK AO2 SLP177 T10111025
                 53005 =
2017-12-18 01:56 METAR KFRI 180756Z AUTO 00000KT 10SM CLR 02/00 A3003 RMK AO2 SLP172 T00151001 =
2017-12-18 00:56 METAR KFRI 180656Z AUTO 20003KT 10SM BKN031 03/01 A3002 RMK AO2 SLP168 T00320009
                 =
2017-12-18 00:11 METAR KFRI 180611Z AUTO 00000KT 10SM SCT027 05/02 A3002 RMK AO2 SLP168 =
2017-12-17 23:56 METAR KFRI 180556Z AUTO 00000KT 10SM OVC028 06/02 A3002 RMK AO2 OVC V BKN SLP168
                 T00550018 10099 20054 401160054 50003 =
2017-12-17 22:56 METAR KFRI 180456Z AUTO 00000KT 10SM OVC031 06/02 A3003 RMK AO2 SLP172 T00600017
                 =
2017-12-17 22:41 METAR KFRI 180441Z AUTO 00000KT 10SM OVC030 06/02 A3003 RMK AO2 SLP172 =
2017-12-17 21:56 METAR KFRI 180356Z AUTO 29003KT 10SM OVC029 07/02 A3003 RMK AO2 SLP172 T00660023
                 =
2017-12-17 20:56 METAR KFRI 180256Z AUTO 33003KT 10SM OVC035 07/02 A3001 RMK AO2 SLP165 T00670022
                 52014 =
2017-12-17 19:56 METAR KFRI 180156Z AUTO 36004KT 10SM OVC036 07/02 A3000 RMK AO2 SLP162 T00730024
                 =
2017-12-17 18:56 METAR KFRI 180056Z AUTO 27005KT 10SM OVC038 09/05 A2998 RMK AO2 SLP154 T00920046
                 =
2017-12-17 17:56 METAR KFRI 172356Z AUTO 00000KT 10SM OVC039 10/05 A2997 RMK AO2 SLP151 T00970045
                 10116 20097 53004 =
2017-12-17 16:56 METAR KFRI 172256Z AUTO 21004KT 10SM OVC031 10/05 A2996 RMK AO2 SLP147 T01000046
                 =
2017-12-17 15:56 METAR KFRI 172156Z AUTO 00000KT 10SM BKN031 11/05 A2995 RMK AO2 SLP143 T01140046
                 =
2017-12-17 14:56 METAR KFRI 172056Z AUTO 27003KT 10SM BKN030 11/05 A2996 RMK AO2 SLP146 T01130047
                 55007 =
2017-12-17 13:56 METAR KFRI 171956Z AUTO 00000KT 10SM CLR 11/05 A2994 RMK AO2 SLP139 T01140048 =
2017-12-17 12:56 METAR KFRI 171856Z AUTO 29004KT 10SM FEW022 11/05 A2995 RMK AO2 SLP142 T01120049
                 =
2017-12-17 12:41 METAR KFRI 171841Z AUTO 29003KT 10SM SCT019 11/05 A2995 RMK AO2 SLP142 =
2017-12-17 11:56 METAR KFRI 171756Z AUTO 25007KT 10SM BKN017 10/06 A2998 RMK AO2 SLP152 60000
                 T00990057 10099 20059 58008 =
2017-12-17 10:56 METAR KFRI 171656Z AUTO 23007KT 10SM SCT012 OVC043 08/06 A3000 RMK AO2 SLP161
                 T00820060 =

Support USWX by starting your Amazon purchase here.